Time,TemperatureF,DewpointF,PressureIn,WindDirection,WindDirectionDegrees,WindSpeedMPH,WindSpeedGustMPH,Humidity,HourlyPrecipIn,Conditions,Clouds,dailyrainin,SolarRadiationWatts/m^2,SoftwareType,DateUTC
2013-08-31 00:09:00,74.3,71.0,29.68,NW,319,4.0,12.0,90,0.00,,,0.00,0,weatherlink.com 1.10,2013-08-31 04:09:00,
2013-08-31 00:24:00,74.1,71.0,29.68,NW,318,5.0,15.0,90,0.00,,,0.00,0,weatherlink.com 1.10,2013-08-31 04:24:00,
2013-08-31 00:39:00,73.8,71.0,29.68,North,354,6.0,13.0,90,0.00,,,0.00,0,weatherlink.com 1.10,2013-08-31 04:39:00,
2013-08-31 00:54:00,73.3,71.0,29.70,NW,321,4.0,12.0,91,0.00,,,0.00,0,weatherlink.com 1.10,2013-08-31 04:54:00,
2013-08-31 01:09:00,73.1,71.0,29.73,WNW,282,4.0,8.0,92,0.00,,,0.00,0,weatherlink.com 1.10,2013-08-31 05:09:00,
2013-08-31 01:24:00,73.1,71.0,29.74,WNW,287,2.0,6.0,92,0.00,,,0.00,0,weatherlink.com 1.10,2013-08-31 05:24:00,
2013-08-31 01:39:00,73.0,70.0,29.73,WNW,283,3.0,6.0,91,0.00,,,0.00,0,weatherlink.com 1.10,2013-08-31 05:39:00,
2013-08-31 01:54:00,72.8,70.0,29.72,WSW,249,0.0,8.0,91,0.00,,,0.00,0,weatherlink.com 1.10,2013-08-31 05:54:00,
2013-08-31 02:09:00,72.7,70.0,29.73,WSW,251,0.0,5.0,91,0.00,,,0.00,0,weatherlink.com 1.10,2013-08-31 06:09:00,
2013-08-31 02:24:00,72.2,70.0,29.72,WNW,291,1.0,6.0,91,0.00,,,0.00,0,weatherlink.com 1.10,2013-08-31 06:24:00,
2013-08-31 02:39:00,71.9,69.0,29.71,WNW,291,0.0,6.0,91,0.00,,,0.00,0,weatherlink.com 1.10,2013-08-31 06:39:00,
2013-08-31 02:54:00,71.6,69.0,29.71,WNW,291,0.0,4.0,91,0.00,,,0.00,0,weatherlink.com 1.10,2013-08-31 06:54:00,
2013-08-31 03:09:00,71.4,69.0,29.71,WNW,291,1.0,2.0,91,0.00,,,0.00,0,weatherlink.com 1.10,2013-08-31 07:09:00,
2013-08-31 03:24:00,71.2,69.0,29.70,WNW,291,2.0,3.0,92,0.00,,,0.00,0,weatherlink.com 1.10,2013-08-31 07:24:00,
2013-08-31 03:39:00,71.1,69.0,29.70,WNW,291,2.0,3.0,92,0.00,,,0.00,0,weatherlink.com 1.10,2013-08-31 07:39:00,
2013-08-31 03:54:00,70.8,69.0,29.71,WNW,291,0.0,4.0,93,0.00,,,0.00,0,weatherlink.com 1.10,2013-08-31 07:54:00,
2013-08-31 04:10:00,70.4,68.0,29.70,WNW,291,1.0,4.0,93,0.00,,,0.00,0,weatherlink.com 1.10,2013-08-31 08:10:00,
2013-08-31 04:25:00,70.3,68.0,29.71,WNW,303,2.0,5.0,93,0.00,,,0.00,0,weatherlink.com 1.10,2013-08-31 08:25:00,
2013-08-31 04:40:00,70.1,68.0,29.70,WNW,303,1.0,5.0,93,0.00,,,0.00,0,weatherlink.com 1.10,2013-08-31 08:40:00,
2013-08-31 04:55:00,69.9,68.0,29.71,NNW,330,0.0,5.0,93,0.00,,,0.00,0,weatherlink.com 1.10,2013-08-31 08:55:00,
2013-08-31 05:10:00,69.6,68.0,29.71,NNW,332,1.0,3.0,93,0.00,,,0.00,0,weatherlink.com 1.10,2013-08-31 09:10:00,
2013-08-31 05:25:00,69.5,68.0,29.72,NNW,332,0.0,3.0,93,0.00,,,0.00,0,weatherlink.com 1.10,2013-08-31 09:25:00,
2013-08-31 05:40:00,69.4,67.0,29.72,NNW,332,1.0,4.0,93,0.00,,,0.00,0,weatherlink.com 1.10,2013-08-31 09:40:00,
2013-08-31 05:55:00,69.4,67.0,29.72,NNW,332,1.0,3.0,93,0.00,,,0.00,0,weatherlink.com 1.10,2013-08-31 09:55:00,
2013-08-31 06:10:00,69.3,67.0,29.73,NNW,332,0.0,3.0,93,0.00,,,0.00,0,weatherlink.com 1.10,2013-08-31 10:10:00,
2013-08-31 06:25:00,69.1,67.0,29.72,NNW,332,1.0,3.0,93,0.00,,,0.00,0,weatherlink.com 1.10,2013-08-31 10:25:00,
2013-08-31 06:40:00,69.0,67.0,29.72,NNW,332,0.0,3.0,93,0.00,,,0.00,0,weatherlink.com 1.10,2013-08-31 10:40:00,
2013-08-31 06:55:00,68.9,67.0,29.71,NNW,332,0.0,3.0,94,0.00,,,0.00,0,weatherlink.com 1.10,2013-08-31 10:55:00,
2013-08-31 07:10:00,68.8,67.0,29.73,NNW,332,0.0,2.0,94,0.00,,,0.00,0,weatherlink.com 1.10,2013-08-31 11:10:00,
2013-08-31 07:25:00,68.6,67.0,29.73,NNW,332,0.0,2.0,94,0.00,,,0.00,14,weatherlink.com 1.10,2013-08-31 11:25:00,
2013-08-31 07:40:00,68.6,67.0,29.73,NNW,332,0.0,2.0,94,0.00,,,0.00,37,weatherlink.com 1.10,2013-08-31 11:40:00,
2013-08-31 07:55:00,68.5,67.0,29.73,NNW,332,1.0,3.0,94,0.00,,,0.00,65,weatherlink.com 1.10,2013-08-31 11:55:00,
2013-08-31 08:10:00,68.6,67.0,29.74,NNW,332,3.0,4.0,94,0.00,,,0.00,104,weatherlink.com 1.10,2013-08-31 12:10:00,
2013-08-31 08:25:00,69.2,68.0,29.75,NNW,332,0.0,5.0,94,0.00,,,0.00,114,weatherlink.com 1.10,2013-08-31 12:25:00,
2013-08-31 08:40:00,69.6,68.0,29.74,NNW,332,4.0,5.0,93,0.00,,,0.00,86,weatherlink.com 1.10,2013-08-31 12:40:00,
2013-08-31 08:55:00,69.4,67.0,29.75,NW,318,5.0,6.0,93,0.00,,,0.00,125,weatherlink.com 1.10,2013-08-31 12:55:00,
2013-08-31 09:10:00,69.6,68.0,29.75,NW,317,0.0,6.0,93,0.00,,,0.00,118,weatherlink.com 1.10,2013-08-31 13:10:00,
2013-08-31 09:25:00,70.3,68.0,29.75,NW,317,2.0,4.0,91,0.00,,,0.00,304,weatherlink.com 1.10,2013-08-31 13:25:00,
2013-08-31 09:40:00,70.9,68.0,29.73,NW,317,0.0,3.0,90,0.00,,,0.00,279,weatherlink.com 1.10,2013-08-31 13:40:00,
2013-08-31 09:55:00,72.4,69.0,29.74,NW,317,3.0,4.0,88,0.00,,,0.00,396,weatherlink.com 1.10,2013-08-31 13:55:00,
2013-08-31 10:10:00,73.4,69.0,29.75,NW,317,2.0,5.0,86,0.00,,,0.00,221,weatherlink.com 1.10,2013-08-31 14:10:00,
2013-08-31 10:25:00,73.6,70.0,29.74,NW,324,0.0,4.0,87,0.00,,,0.00,146,weatherlink.com 1.10,2013-08-31 14:25:00,
2013-08-31 10:40:00,73.3,69.0,29.74,NW,323,1.0,3.0,87,0.01,,,0.01,169,weatherlink.com 1.10,2013-08-31 14:40:00,
2013-08-31 10:55:00,72.9,69.0,29.74,NW,323,4.0,5.0,88,0.01,,,0.01,192,weatherlink.com 1.10,2013-08-31 14:55:00,
2013-08-31 11:10:00,73.4,70.0,29.74,NW,323,2.0,4.0,88,0.01,,,0.01,452,weatherlink.com 1.10,2013-08-31 15:10:00,
2013-08-31 11:25:00,74.5,70.0,29.75,NW,323,0.0,5.0,85,0.01,,,0.01,244,weatherlink.com 1.10,2013-08-31 15:25:00,
2013-08-31 11:40:00,74.8,70.0,29.75,NW,323,0.0,3.0,85,0.00,,,0.01,135,weatherlink.com 1.10,2013-08-31 15:40:00,
2013-08-31 11:55:00,74.7,70.0,29.74,NW,323,0.0,1.0,85,0.00,,,0.01,91,weatherlink.com 1.10,2013-08-31 15:55:00,
2013-08-31 12:10:00,74.6,70.0,29.73,NNW,330,2.0,4.0,85,0.00,,,0.01,84,weatherlink.com 1.10,2013-08-31 16:10:00,
2013-08-31 12:25:00,74.3,70.0,29.74,NNW,332,1.0,3.0,85,0.00,,,0.01,155,weatherlink.com 1.10,2013-08-31 16:25:00,
2013-08-31 12:40:00,74.6,70.0,29.75,NNW,336,0.0,3.0,85,0.00,,,0.01,98,weatherlink.com 1.10,2013-08-31 16:40:00,
2013-08-31 12:55:00,74.8,70.0,29.74,NNW,336,2.0,4.0,85,0.00,,,0.01,65,weatherlink.com 1.10,2013-08-31 16:55:00,
2013-08-31 13:10:00,74.4,70.0,29.73,NNW,335,0.0,3.0,87,0.00,,,0.01,39,weatherlink.com 1.10,2013-08-31 17:10:00,
2013-08-31 13:25:00,73.7,71.0,29.72,NNW,330,4.0,5.0,90,0.05,,,0.06,42,weatherlink.com 1.10,2013-08-31 17:25:00,
2013-08-31 13:40:00,72.7,71.0,29.75,NNW,329,0.0,4.0,93,0.06,,,0.07,81,weatherlink.com 1.10,2013-08-31 17:40:00,
2013-08-31 13:55:00,72.6,71.0,29.75,NNW,329,0.0,4.0,94,0.06,,,0.07,53,weatherlink.com 1.10,2013-08-31 17:55:00,
2013-08-31 14:10:00,72.5,71.0,29.73,NNW,330,2.0,4.0,94,0.07,,,0.08,72,weatherlink.com 1.10,2013-08-31 18:10:00,
2013-08-31 14:25:00,72.4,71.0,29.72,NNW,329,0.0,4.0,95,0.02,,,0.08,95,weatherlink.com 1.10,2013-08-31 18:25:00,
2013-08-31 14:40:00,72.6,71.0,29.73,NNW,329,0.0,1.0,95,0.01,,,0.08,74,weatherlink.com 1.10,2013-08-31 18:40:00,
2013-08-31 14:55:00,72.9,71.0,29.75,NW,326,3.0,5.0,95,0.02,,,0.09,63,weatherlink.com 1.10,2013-08-31 18:55:00,
2013-08-31 15:10:00,72.8,71.0,29.72,NW,326,1.0,3.0,95,0.01,,,0.09,33,weatherlink.com 1.10,2013-08-31 19:10:00,
2013-08-31 15:25:00,72.6,71.0,29.71,NNE,29,1.0,5.0,95,0.02,,,0.10,21,weatherlink.com 1.10,2013-08-31 19:25:00,
2013-08-31 15:40:00,72.4,71.0,29.73,SSW,192,3.0,7.0,95,0.02,,,0.10,19,weatherlink.com 1.10,2013-08-31 19:40:00,
2013-08-31 15:55:00,72.1,71.0,29.73,SW,226,0.0,3.0,96,0.02,,,0.11,25,weatherlink.com 1.10,2013-08-31 19:55:00,
2013-08-31 16:10:00,71.9,71.0,29.70,South,173,3.0,3.0,96,0.03,,,0.12,53,weatherlink.com 1.10,2013-08-31 20:10:00,
2013-08-31 16:25:00,72.1,71.0,29.68,East,84,1.0,6.0,95,0.02,,,0.12,141,weatherlink.com 1.10,2013-08-31 20:25:00,
2013-08-31 16:40:00,72.6,71.0,29.68,East,84,1.0,5.0,95,0.02,,,0.12,105,weatherlink.com 1.10,2013-08-31 20:40:00,
2013-08-31 16:55:00,73.1,71.0,29.67,East,84,1.0,5.0,94,0.01,,,0.12,197,weatherlink.com 1.10,2013-08-31 20:55:00,
2013-08-31 17:10:00,73.4,72.0,29.64,ENE,69,3.0,8.0,94,0.00,,,0.12,174,weatherlink.com 1.10,2013-08-31 21:10:00,
2013-08-31 17:25:00,73.8,72.0,29.65,ENE,76,0.0,7.0,93,0.00,,,0.12,179,weatherlink.com 1.10,2013-08-31 21:25:00,
2013-08-31 17:40:00,74.6,72.0,29.67,ENE,64,3.0,5.0,92,0.00,,,0.12,557,weatherlink.com 1.10,2013-08-31 21:40:00,
2013-08-31 17:56:00,75.8,72.0,29.67,NNE,26,5.0,7.0,89,0.00,,,0.12,387,weatherlink.com 1.10,2013-08-31 21:56:00,
2013-08-31 18:11:00,76.4,72.0,29.68,NNE,13,0.0,5.0,85,0.00,,,0.12,211,weatherlink.com 1.10,2013-08-31 22:11:00,
2013-08-31 18:26:00,77.4,72.0,29.68,NNE,12,1.0,3.0,82,0.00,,,0.12,251,weatherlink.com 1.10,2013-08-31 22:26:00,
2013-08-31 18:41:00,77.2,72.0,29.69,NNE,12,1.0,4.0,83,0.00,,,0.12,183,weatherlink.com 1.10,2013-08-31 22:41:00,
2013-08-31 18:56:00,76.7,71.0,29.68,NNE,12,1.0,1.0,83,0.00,,,0.12,113,weatherlink.com 1.10,2013-08-31 22:56:00,
2013-08-31 19:11:00,76.4,71.0,29.68,NNE,12,0.0,1.0,84,0.00,,,0.12,81,weatherlink.com 1.10,2013-08-31 23:11:00,
2013-08-31 19:26:00,76.1,71.0,29.66,NNE,12,0.0,2.0,85,0.00,,,0.12,51,weatherlink.com 1.10,2013-08-31 23:26:00,
2013-08-31 19:41:00,76.0,71.0,29.67,NNE,12,0.0,1.0,85,0.00,,,0.12,40,weatherlink.com 1.10,2013-08-31 23:41:00,
2013-08-31 19:56:00,75.9,72.0,29.68,NNE,12,0.0,3.0,86,0.00,,,0.12,39,weatherlink.com 1.10,2013-08-31 23:56:00,
2013-08-31 20:11:00,75.8,72.0,29.71,WSW,244,0.0,7.0,87,0.00,,,0.12,33,weatherlink.com 1.10,2013-09-01 00:11:00,
2013-08-31 20:26:00,75.4,71.0,29.69,WSW,244,0.0,3.0,87,0.00,,,0.12,12,weatherlink.com 1.10,2013-09-01 00:26:00,
2013-08-31 20:41:00,75.1,71.0,29.69,WSW,244,0.0,2.0,88,0.00,,,0.12,0,weatherlink.com 1.10,2013-09-01 00:41:00,
2013-08-31 20:56:00,74.8,71.0,29.70,WSW,244,0.0,1.0,89,0.00,,,0.12,0,weatherlink.com 1.10,2013-09-01 00:56:00,
2013-08-31 21:11:00,74.5,72.0,29.70,WSW,244,0.0,1.0,90,0.00,,,0.12,0,weatherlink.com 1.10,2013-09-01 01:11:00,
2013-08-31 21:26:00,73.9,71.0,29.71,WSW,244,0.0,0.0,91,0.00,,,0.12,0,weatherlink.com 1.10,2013-09-01 01:26:00,
2013-08-31 21:41:00,73.6,71.0,29.71,WSW,244,0.0,1.0,92,0.00,,,0.12,0,weatherlink.com 1.10,2013-09-01 01:41:00,
2013-08-31 21:56:00,73.3,71.0,29.70,WSW,244,0.0,1.0,92,0.00,,,0.12,0,weatherlink.com 1.10,2013-09-01 01:56:00,
2013-08-31 22:11:00,73.1,71.0,29.70,WSW,244,0.0,1.0,93,0.00,,,0.12,0,weatherlink.com 1.10,2013-09-01 02:11:00,
2013-08-31 22:26:00,72.9,71.0,29.71,WSW,244,2.0,4.0,94,0.00,,,0.12,0,weatherlink.com 1.10,2013-09-01 02:26:00,
2013-08-31 22:41:00,72.7,71.0,29.71,SSE,165,2.0,5.0,94,0.00,,,0.12,0,weatherlink.com 1.10,2013-09-01 02:41:00,
2013-08-31 22:56:00,72.9,71.0,29.70,SSE,165,1.0,3.0,94,0.00,,,0.12,0,weatherlink.com 1.10,2013-09-01 02:56:00,
2013-08-31 23:11:00,73.0,71.0,29.70,SSE,165,0.0,1.0,93,0.00,,,0.12,0,weatherlink.com 1.10,2013-09-01 03:11:00,
2013-08-31 23:26:00,73.1,71.0,29.71,SSE,165,0.0,1.0,92,0.00,,,0.12,0,weatherlink.com 1.10,2013-09-01 03:26:00,
2013-08-31 23:41:00,73.0,71.0,29.71,SSE,165,0.0,1.0,93,0.00,,,0.12,0,weatherlink.com 1.10,2013-09-01 03:41:00,
2013-08-31 23:56:00,72.8,70.0,29.71,SSE,165,0.0,2.0,92,0.00,,,0.12,0,weatherlink.com 1.10,2013-09-01 03:56:00,